createdAt,value
2019-04-16T15:10:04.840Z,7.90
2019-04-16T15:12:34.795Z,7.87
2019-04-16T15:15:00.267Z,7.60
2019-04-16T15:17:29.469Z,7.50
2019-04-16T15:19:55.725Z,7.60
2019-04-16T15:22:22.912Z,8.10
2019-04-16T15:24:49.891Z,8.03
2019-04-16T15:27:16.845Z,7.53
2019-04-16T15:29:44.213Z,8.10
2019-04-16T15:32:11.244Z,7.60
2019-04-16T15:34:41.964Z,7.77
2019-04-16T15:37:06.765Z,8.40
2019-04-16T15:39:36.404Z,8.57
2019-04-16T15:42:02.245Z,7.60
2019-04-16T15:44:31.912Z,8.50
2019-04-16T15:46:57.484Z,7.30
2019-04-16T15:49:24.259Z,8.00
2019-04-16T15:51:51.581Z,7.90
2019-04-16T15:54:18.688Z,7.63
2019-04-16T15:56:45.448Z,7.23
2019-04-16T15:59:12.285Z,7.13
2019-04-16T16:01:39.192Z,7.90
2019-04-16T16:04:06.064Z,7.63
2019-04-16T16:06:32.924Z,7.90
2019-04-16T16:08:59.689Z,8.00
2019-04-16T16:11:26.548Z,8.20
2019-04-16T16:13:56.311Z,7.80
2019-04-16T16:16:22.124Z,8.47
2019-04-16T16:18:48.895Z,8.67
2019-04-16T16:21:15.843Z,11.50
2019-04-16T16:23:42.619Z,8.77
2019-04-16T16:26:09.699Z,8.07
2019-04-16T16:28:36.650Z,8.50
2019-04-16T16:31:03.510Z,8.30
2019-04-16T16:33:30.267Z,9.20
2019-04-16T16:35:59.486Z,8.20
2019-04-16T16:38:25.529Z,8.90
2019-04-16T16:40:52.289Z,9.47
2019-04-16T16:43:18.861Z,8.90
2019-04-16T16:45:45.620Z,8.47
2019-04-16T16:48:12.288Z,8.50
2019-04-16T16:50:41.048Z,9.10
2019-04-16T16:53:07.548Z,8.37
2019-04-16T16:55:34.409Z,9.17
2019-04-16T16:58:01.169Z,8.87
2019-04-16T17:00:27.829Z,8.95
2019-04-16T17:02:54.971Z,9.60
2019-04-16T17:05:21.774Z,9.20
2019-04-16T17:07:50.695Z,9.27
2019-04-16T17:10:17.136Z,9.53
2019-04-16T17:12:43.952Z,10.93
2019-04-16T17:15:10.767Z,9.85
2019-04-16T17:17:37.513Z,9.40
2019-04-16T17:20:04.639Z,9.58
2019-04-16T17:22:31.714Z,10.00
2019-04-16T17:24:58.616Z,10.45
2019-04-16T17:27:25.553Z,10.03
2019-04-16T17:29:52.462Z,9.55
2019-04-16T17:32:19.444Z,9.25
2019-04-16T17:34:46.193Z,10.35
2019-04-16T17:37:12.959Z,9.73
2019-04-16T17:39:42.293Z,9.23
2019-04-16T17:42:08.207Z,9.80
2019-04-16T17:44:34.972Z,10.35
2019-04-16T17:47:02.004Z,10.30
2019-04-16T17:49:28.906Z,9.43
2019-04-16T17:51:55.673Z,10.08
2019-04-16T17:54:22.744Z,11.80
2019-04-16T17:56:51.963Z,11.25
2019-04-16T17:59:18.016Z,10.40
2019-04-16T18:01:44.868Z,11.50
2019-04-16T18:04:11.616Z,10.43
2019-04-16T18:06:38.698Z,11.25
2019-04-16T18:09:05.358Z,11.30
2019-04-16T18:11:32.296Z,13.08
2019-04-16T18:14:04.635Z,11.97
2019-04-16T18:16:28.970Z,12.63
2019-04-16T18:18:59.280Z,11.75
2019-04-16T18:21:25.923Z,11.38
2019-04-16T18:23:52.681Z,11.73
2019-04-16T18:26:19.336Z,11.22
2019-04-16T18:28:46.030Z,10.82
2019-04-16T18:31:12.763Z,10.68
2019-04-16T18:33:39.533Z,11.15
2019-04-16T18:36:06.198Z,10.48
2019-04-16T18:38:32.864Z,11.30
2019-04-16T18:41:02.753Z,11.35
2019-04-16T18:43:28.323Z,10.65
2019-04-16T18:45:55.832Z,11.03
2019-04-16T18:48:24.770Z,9.63
2019-04-16T18:50:51.670Z,10.65
2019-04-16T18:53:18.552Z,13.68
2019-04-16T18:55:45.212Z,12.95
2019-04-16T18:58:11.965Z,11.88
2019-04-16T19:00:38.829Z,12.98
2019-04-16T19:03:05.399Z,12.75
2019-04-16T19:05:32.205Z,13.20
2019-04-16T19:08:00.187Z,12.90
2019-04-16T19:10:27.720Z,12.63
2019-04-16T19:12:54.608Z,14.38
2019-04-16T19:15:21.457Z,13.45
2019-04-16T19:17:48.117Z,13.53
2019-04-16T19:20:17.615Z,12.75
2019-04-16T19:22:46.534Z,16.57
2019-04-16T19:25:11.878Z,17.92
2019-04-16T19:27:38.851Z,19.52
2019-04-16T19:30:05.777Z,20.88
2019-04-16T19:32:35.000Z,22.40
2019-04-16T19:35:09.565Z,21.50
2019-04-16T19:37:32.951Z,20.12
2019-04-16T19:39:57.991Z,16.65
2019-04-16T19:42:25.776Z,16.82
2019-04-16T19:44:53.881Z,16.70
2019-04-16T19:47:23.272Z,15.93
2019-04-16T19:49:49.426Z,13.18
2019-04-16T19:52:17.342Z,13.93
2019-04-16T19:54:44.886Z,13.48
2019-04-16T19:57:11.574Z,12.80
2019-04-16T19:59:38.305Z,14.05
2019-04-16T20:02:04.866Z,13.60
2019-04-16T20:04:31.660Z,13.03
2019-04-16T20:07:01.166Z,12.65
2019-04-16T20:09:27.505Z,12.25
2019-04-16T20:11:55.357Z,12.90
2019-04-16T20:14:23.296Z,13.35
2019-04-16T20:16:50.155Z,12.45
2019-04-16T20:19:16.820Z,15.20
2019-04-16T20:21:43.675Z,17.00
2019-04-16T20:24:10.355Z,14.40
2019-04-16T20:26:37.116Z,12.90
2019-04-16T20:29:03.975Z,12.25
2019-04-16T20:31:30.636Z,11.57
2019-04-16T20:33:58.936Z,11.70
2019-04-16T20:36:25.895Z,13.13
2019-04-16T20:38:52.555Z,12.20
2019-04-16T20:41:19.316Z,12.03
2019-04-16T20:43:46.067Z,12.13
2019-04-16T20:46:12.743Z,11.88
2019-04-16T20:48:41.914Z,13.50
2019-04-16T20:51:08.198Z,12.82
2019-04-16T20:53:34.777Z,12.73
2019-04-16T20:56:01.895Z,13.20
2019-04-16T20:58:31.421Z,13.95
2019-04-16T21:00:57.499Z,12.55
2019-04-16T21:03:24.153Z,12.07
2019-04-16T21:05:57.883Z,11.83
2019-04-16T21:08:24.299Z,12.03
2019-04-16T21:10:48.845Z,12.40
2019-04-16T21:13:16.273Z,10.98
2019-04-16T21:15:43.702Z,12.13
2019-04-16T21:18:12.076Z,11.63
2019-04-16T21:20:38.877Z,11.25
2019-04-16T21:23:05.831Z,11.00
2019-04-16T21:25:32.696Z,10.65
2019-04-16T21:27:59.777Z,11.65
2019-04-16T21:30:26.938Z,11.25
2019-04-16T21:32:53.694Z,11.15
2019-04-16T21:35:20.364Z,12.95
2019-04-16T21:37:47.016Z,10.53
2019-04-16T21:40:13.675Z,10.95
2019-04-16T21:42:40.585Z,10.38
2019-04-16T21:45:07.509Z,11.43
2019-04-16T21:47:34.375Z,11.50
2019-04-16T21:50:01.142Z,10.85
2019-04-16T21:52:28.024Z,10.40
